Sweeney Granite Mountains, California Weather observations

Data are for 10 minute period ending at time listed.
 Day   Time   Solar   Ave.   Ave.  Ave.  Vector  Max.   Baro.   Total    
  of    of     Rad.   Air    Rel.  Wind   Wind   Wind  Press.  Precip.   
Year   Day            Temp.  Hum.  Speed  Dir.   Gust                    
2016   (PST)  Kw/m2    F      %     mph   deg.    mph    mb.     in.     
-------------------------------------------------------------------------
 268    7:10   0.27   64.7    20   10.8   313    18.3   873.6    0.00 
 268    7:20   0.30   65.2    20   11.2   314    18.3   873.7    0.00 
 268    7:30   0.34   65.3    19   10.4   335    17.6   873.8    0.00 
 268    7:40   0.37   66.0    19   11.1   322    18.0   873.8    0.00 
 268    7:50   0.41   66.3    18   11.8   319    20.8   873.9    0.00 
 268    8:00   0.44   67.1    18    9.7   304    20.0   874.0    0.00 
 268    8:10   0.48   67.3    18    8.9   316    15.7   874.2    0.00 
 268    8:20   0.51   67.5    18    9.3   311    17.9   874.3    0.00 
 268    8:30   0.54   67.5    17   10.2   310    16.0   874.3    0.00 
 268    8:40   0.57   67.7    17   10.5   304    17.4   874.4    0.00 
 268    8:50   0.60   68.9    16    5.0   337    10.7   874.6    0.00 
 268    9:00   0.63   69.2    16    4.5     6    11.2   874.7    0.00 
 268    9:10   0.66   69.5    16    5.6     8    13.1   874.8    0.00 
 268    9:20   0.68   68.8    16    5.2   167    18.1   874.8    0.00 
 268    9:30   0.71   69.1    16    5.0   307    10.2   874.8    0.00 
 268    9:40   0.73   69.8    16    5.0   302    14.7   874.8    0.00 
 268    9:50   0.75   70.0    16    8.2   302    17.2   874.8    0.00 
 268   10:00   0.77   69.4    16    7.1   325    13.9   874.8    0.00 
 268   10:10   0.79   70.9    16    9.1   297    14.5   874.6    0.00 
 268   10:20   0.81   70.7    16    7.3   300    11.2   874.6    0.00 
 268   10:30   0.82   71.2    15    3.3   185     9.4   874.5    0.00 
 268   10:40   0.84   73.0    14    2.7    30     8.3   874.4    0.00 
 268   10:50   0.85   73.4    14    4.5   280    10.1   874.3    0.00 
 268   11:00   0.86   73.0    14    3.3   294     9.9   874.2    0.00 
 268   11:10   0.86   73.4    14    6.2    99    13.4   874.2    0.00 
 268   11:20   0.86   72.4    15    6.1    52    15.5   874.3    0.00 
 268   11:30   0.87   73.0    14    5.9    70    13.7   874.2    0.00 
 268   11:40   0.88   74.0    14    3.8   317     9.0   874.2    0.00 
 268   11:50   0.88   73.9    15    5.6     4    10.7   874.2    0.00 
 268   12:00   0.87   73.5    15    4.8    38    10.8   874.1    0.00 
 268   12:10   0.86   74.4    15    5.7   287    13.3   874.0    0.00 
 268   12:20   0.86   74.0    15    7.0   315    14.0   874.0    0.00 
 268   12:30   0.85   73.7    15    6.2   331    14.8   873.9    0.00 
 268   12:40   0.82   73.7    16    8.9   295    15.1   873.8    0.00 
 268   12:50   0.83   73.9    16    7.1   294    13.4   873.6    0.00 
 268   13:00   0.81   74.2    15    6.0    48    14.1   873.6    0.00 
 268   13:10   0.80   74.3    15    6.1     4    13.7   873.5    0.00 
 268   13:20   0.78   74.6    15    6.6   314    13.8   873.5    0.00 
 268   13:30   0.76   73.6    15    9.0   314    15.1   873.6    0.00 
 268   13:40   0.74   74.0    15    7.4   319    16.4   873.6    0.00 
 268   13:50   0.72   73.7    15   12.9   303    21.0   873.6    0.00 
 268   14:00   0.70   73.8    14   11.0   301    19.3   873.6    0.00 
 268   14:10   0.68   74.3    14    8.3   304    18.0   873.6    0.00 
 268   14:20   0.65   74.5    14    6.9   348    18.2   873.6    0.00 
 268   14:30   0.62   74.9    14    6.6   323    17.8   873.6    0.00 
 268   14:40   0.59   74.5    14    8.8   292    21.7   873.5    0.00 
 268   14:50   0.56   74.2    14    8.3   276    17.0   873.5    0.00 
 268   15:00   0.53   75.3    14    4.8    33    12.1   873.5    0.00 
 268   15:10   0.50   74.6    14    4.6    86    12.1   873.5    0.00 
 268   15:20   0.46   73.6    15    7.5    91    18.3   873.3    0.00 
 268   15:30   0.43   74.7    15    5.9   287    13.9   873.3    0.00 
 268   15:40   0.39   74.7    15    6.3    82    14.6   873.3    0.00 
 268   15:50   0.36   73.7    16    6.6    92    19.4   873.2    0.00 
 268   16:00   0.32   74.6    15    3.1   123     7.8   873.1    0.00 
 268   16:10   0.29   74.4    16    4.8   124    10.4   873.1    0.00 
 268   16:20   0.25   74.3    16    4.5   250    10.9   873.1    0.00 
 268   16:30   0.21   74.5    16    6.4   259    19.4   873.1    0.00 
 268   16:40   0.17   73.1    17    9.3   271    22.3   873.0    0.00 
 268   16:50   0.12   72.4    17    8.8   268    18.2   873.1    0.00 
 268   17:00   0.01   71.4    18    7.6   278    20.1   873.2    0.00 
 268   17:10   0.01   71.0    18    9.3   274    18.7   873.2    0.00 
 268   17:20   0.01   70.8    18    8.5   268    18.3   873.1    0.00 
 268   17:30   0.00   70.9    18    8.0   264    16.4   873.1    0.00 
 268   17:40   0.00   70.8    18    9.8   271    16.7   873.1    0.00 
 268   17:50   0.00   70.7    18    7.2   261    20.8   873.3    0.00 
 268   18:00   0.00   70.6    18    6.9   250    14.5   873.3    0.00 
 268   18:10   0.00   70.7    18    7.4   319    14.8   873.4    0.00 
 268   18:20   0.00   70.6    18    8.8   291    19.2   873.3    0.00 
 268   18:30   0.00   70.6    18    7.2   295    17.2   873.3    0.00 
 268   18:40   0.00   70.6    18    7.4   338    17.7   873.4    0.00 
 268   18:50   0.00   71.0    17    6.9   351    20.1   873.6    0.00 
 268   19:00   0.00   70.9    17    4.0   318    11.5   873.7    0.00 
 268   19:10   0.00   70.5    17    3.8    55    12.1   873.8    0.00 
 268   19:20   0.00   70.5    17    6.2   316    13.7   873.9    0.00 
 268   19:30   0.00   70.6    17    4.8   115    13.4   873.9    0.00 
 268   19:40   0.00   70.6    17    5.9    66    14.5   874.0    0.00 
 268   19:50   0.00   70.5    16    5.8    69    14.5   874.1    0.00 
 268   20:00   0.00   70.5    16    4.5    52    11.0   874.1    0.00 
 268   20:10   0.00   70.4    16    5.5    45    14.8   874.1    0.00 
 268   20:20   0.00   70.2    16    4.8    87    14.7   874.2    0.00 
 268   20:30   0.00   70.3    16    5.7    71    12.9   874.1    0.00 
 268   20:40   0.00   70.2    16    6.7    61    17.0   874.2    0.00 
 268   20:50   0.00   70.0    17    6.6    68    15.4   874.1    0.00 
 268   21:00   0.00   69.8    17    7.5    68    15.1   874.0    0.00 
 268   21:10   0.00   69.7    17    5.9    54    14.8   874.1    0.00 
 268   21:20   0.00   69.6    17    4.3    64     9.0   874.3    0.00 
 268   21:30   0.00   68.9    18    3.7    95     8.8   874.3    0.00 
 268   21:40   0.00   69.4    17    4.7    87    11.5   874.4    0.00 
 268   21:50   0.00   70.1    17    2.7    51    11.2   874.5    0.00 
 268   22:00   0.00   70.0    17    3.7    48    10.5   874.3    0.00 
 268   22:10   0.00   69.8    17    3.0    95    10.2   874.3    0.00 
 268   22:20   0.00   69.9    17    3.2    99     8.6   874.3    0.00 
 268   22:30   0.00   70.0    17    2.9   113     6.1   874.4    0.00 
 268   22:40   0.00   70.4    16    4.6    44    14.3   874.3    0.00 
 268   22:50   0.00   70.5    16    5.3    49    11.0   874.4    0.00 
 268   23:00   0.00   70.8    16    3.6    69     7.8   874.4    0.00 
 268   23:10   100.00  99999.0   99999  99999.0   99999   99999.0   99999.0   99999.00 
 268   23:20   100.00  99999.0   99999  99999.0   99999   99999.0   99999.0   99999.00 
 268   23:30   100.00  99999.0   99999  99999.0   99999   99999.0   99999.0   99999.00 
 268   23:40   100.00  99999.0   99999  99999.0   99999   99999.0   99999.0   99999.00 
 268   23:50   100.00  99999.0   99999  99999.0   99999   99999.0   99999.0   99999.00 
 269    0:00   0.00   69.5    17    5.4   285     9.3   874.5    0.00 
 269    0:10   0.00   68.0    17    3.0   230     6.5   874.6    0.00 
 269    0:20   0.00   66.2    19    4.9   113    11.5   874.6    0.00 
 269    0:30   0.00   69.2    15    5.5   108    22.4   874.6    0.00 
 269    0:40   0.00   70.6    14    5.3    64    15.9   874.6    0.00 
 269    0:50   0.00   70.2    14    3.1   312     9.6   874.7    0.00 
 269    1:00   0.00   68.9    15    5.2   299    11.0   874.8    0.00 
 269    1:10   0.00   68.5    15    6.2   323     9.8   874.8    0.00 
 269    1:20   0.00   68.3    16    3.1    43     7.7   875.0    0.00 
 269    1:30   0.00   67.6    17    3.5     5     9.1   875.0    0.00 
 269    1:40   0.00   67.8    17    2.5   344     7.6   875.0    0.00 
 269    1:50   0.00   67.6    18    2.7    65     7.6   875.0    0.00 
 269    2:00   0.00   67.4    20    3.3    77     9.7   875.0    0.00 
 269    2:10   0.00   67.5    20    4.9    60    12.5   875.0    0.00 
 269    2:20   0.00   67.3    21    6.9    94    13.1   874.9    0.00 
 269    2:30   0.00   67.4    21    8.1    80    15.9   874.9    0.00 
 269    2:40   0.00   67.3    21    8.9    76    16.4   874.9    0.00 
 269    2:50   0.00   67.3    21    8.5    85    15.7   874.9    0.00 
 269    3:00   0.00   67.0    22    4.5    78     9.6   874.9    0.00 
 269    3:10   0.00   67.2    22    5.7    46    12.6   874.9    0.00 
 269    3:20   0.00   67.0    22    7.0    60    11.4   874.9    0.00 
 269    3:30   0.00   66.5    22    4.8    86    10.6   874.9    0.00 
 269    3:40   0.00   65.9    23    5.1    77     9.5   875.0    0.00 
 269    3:50   0.00   66.1    22    4.6    49     9.5   875.1    0.00 
 269    4:00   0.00   65.8    23    3.9    61     9.1   875.1    0.00 
 269    4:10   0.00   64.9    24    2.3    58     5.2   875.1    0.00 
 269    4:20   0.00   63.4    26    5.0   103     8.3   875.2    0.00 
 269    4:30   0.00   61.3    28    7.8   101    11.1   875.1    0.00 
 269    4:40   0.00   61.6    27    5.7    83    11.3   875.3    0.00 
 269    4:50   0.00   62.3    26    7.7    87    11.0   875.3    0.00 
 269    5:00   0.00   62.2    27    4.4    82    10.1   875.4    0.00 
 269    5:10   0.00   60.5    28    2.8    92     6.8   875.4    0.00 
 269    5:20   0.00   61.4    27    6.8    75    10.6   875.4    0.00 
 269    5:30   0.00   62.8    26    5.7    69    11.5   875.6    0.00 
 269    5:40   0.00   63.0    25    3.6    50     8.7   875.7    0.00 
 269    5:50   0.01   63.0    25    4.6    50     9.1   875.8    0.00 
 269    6:00   0.03   64.0    24    5.2    42     8.0   875.9    0.00 
 269    6:10   0.07   65.1    24    4.3    55     6.1   876.1    0.00 
 269    6:20   0.09   65.8    23    4.0   332     5.7   876.1    0.00 
 269    6:30   0.13   67.4    20    2.7    29     5.7   876.1    0.00 
 269    6:40   0.16   68.8    18    2.7    34     5.8   876.3    0.00 
 269    6:50   0.20   68.7    18    4.7   322    10.3   876.4    0.00 
 269    7:00   0.23   68.1    19    7.7   306    12.0   876.4    0.00 

Return to Sweeney Granite Mountains graphs page.


Western Regional Climate Center,wrcc@dri.edu